createdAt,value
2023-04-26T00:01:53.183Z,63.52
2023-04-26T00:04:58.844Z,63.62
2023-04-26T00:08:01.595Z,63.98
2023-04-26T00:11:04.113Z,62.81
2023-04-26T00:14:06.770Z,62.48
2023-04-26T00:17:09.437Z,63.00
2023-04-26T00:20:14.097Z,62.95
2023-04-26T00:23:17.361Z,62.76
2023-04-26T00:26:19.829Z,62.84
2023-04-26T00:29:22.369Z,62.29
2023-04-26T00:32:24.891Z,63.89
2023-04-26T00:35:28.848Z,64.77
2023-04-26T00:38:31.604Z,62.30
2023-04-26T00:41:34.289Z,62.17
2023-04-26T00:44:40.006Z,62.15
2023-04-26T00:47:42.687Z,62.17
2023-04-26T00:50:47.691Z,63.70
2023-04-26T00:53:50.489Z,62.85
2023-04-26T00:56:53.332Z,64.26
2023-04-26T00:59:56.360Z,62.50
2023-04-26T01:02:59.044Z,62.86
2023-04-26T01:06:02.991Z,62.26
2023-04-26T01:09:09.876Z,62.40
2023-04-26T01:12:13.074Z,63.93
2023-04-26T01:15:15.624Z,62.89
2023-04-26T01:18:18.243Z,64.57
2023-04-26T01:21:22.796Z,64.14
2023-04-26T01:24:26.704Z,64.55
2023-04-26T01:27:29.248Z,63.37
2023-04-26T01:30:31.801Z,63.10
2023-04-26T01:33:34.273Z,62.76
2023-04-26T01:36:37.018Z,62.82
2023-04-26T01:39:41.009Z,63.85
2023-04-26T01:42:43.660Z,62.39
2023-04-26T01:45:47.763Z,63.43
2023-04-26T01:48:50.540Z,64.85
2023-04-26T01:51:53.387Z,64.36
2023-04-26T01:54:57.342Z,62.27
2023-04-26T01:57:59.913Z,62.58
2023-04-26T02:01:07.968Z,62.32
2023-04-26T02:04:10.632Z,63.48
2023-04-26T02:07:13.161Z,63.99
2023-04-26T02:10:17.037Z,63.29
2023-04-26T02:13:19.564Z,62.67
2023-04-26T02:16:22.385Z,62.44
2023-04-26T02:19:25.057Z,63.55
2023-04-26T02:22:27.716Z,65.35
2023-04-26T02:25:32.198Z,66.97
2023-04-26T02:28:34.708Z,66.99
2023-04-26T02:31:37.286Z,68.01
2023-04-26T02:34:39.796Z,67.79
2023-04-26T02:37:42.281Z,68.48
2023-04-26T02:40:46.154Z,68.47
2023-04-26T02:43:48.647Z,69.74
2023-04-26T02:46:51.255Z,69.91
2023-04-26T02:49:53.733Z,69.86
2023-04-26T02:52:56.292Z,70.56
2023-04-26T02:56:00.982Z,70.23
2023-04-26T02:59:03.498Z,69.85
2023-04-26T03:02:06.226Z,69.96
2023-04-26T03:05:10.720Z,69.86
2023-04-26T03:08:13.480Z,70.35
2023-04-26T03:11:17.637Z,70.21
2023-04-26T03:14:20.155Z,71.40
2023-04-26T03:17:22.822Z,71.83
2023-04-26T03:20:25.597Z,71.84
2023-04-26T03:23:28.700Z,72.61
2023-04-26T03:26:32.609Z,73.11
2023-04-26T03:29:35.267Z,72.96
2023-04-26T03:32:38.386Z,73.60
2023-04-26T03:35:41.018Z,73.66
2023-04-26T03:38:43.875Z,74.11
2023-04-26T03:41:47.844Z,74.70
2023-04-26T03:44:50.548Z,75.10
2023-04-26T03:47:53.356Z,75.89
2023-04-26T03:50:56.261Z,77.47
2023-04-26T03:53:59.881Z,78.32
2023-04-26T03:57:03.880Z,78.93
2023-04-26T04:00:10.107Z,79.25
2023-04-26T04:03:12.925Z,79.51
2023-04-26T04:06:15.784Z,79.39
2023-04-26T04:09:18.296Z,79.11
2023-04-26T04:12:22.918Z,80.03
2023-04-26T04:15:25.652Z,80.50
2023-04-26T04:18:28.268Z,80.23
2023-04-26T04:21:32.053Z,80.17
2023-04-26T04:24:34.652Z,80.18
2023-04-26T04:27:38.992Z,80.06
2023-04-26T04:30:43.619Z,79.75
2023-04-26T04:33:46.438Z,79.99
2023-04-26T04:36:48.937Z,79.74
2023-04-26T04:39:51.549Z,79.97
2023-04-26T04:42:55.736Z,79.30
2023-04-26T04:45:58.900Z,79.51
2023-04-26T04:49:02.152Z,79.18
2023-04-26T04:52:05.336Z,79.57
2023-04-26T04:55:08.458Z,79.00
2023-04-26T04:58:14.036Z,79.06
2023-04-26T05:01:16.633Z,79.12
2023-04-26T05:04:19.489Z,79.15
2023-04-26T05:07:24.422Z,78.39
2023-04-26T05:10:27.262Z,78.35
2023-04-26T05:13:31.213Z,77.89
2023-04-26T05:16:35.551Z,77.28
2023-04-26T05:19:38.233Z,76.34
2023-04-26T05:22:41.358Z,76.04
2023-04-26T05:25:43.929Z,75.43
2023-04-26T05:28:47.861Z,75.05
2023-04-26T05:31:50.725Z,75.34
2023-04-26T05:34:54.486Z,74.65
2023-04-26T05:37:57.041Z,74.44
2023-04-26T05:40:59.599Z,74.26
2023-04-26T05:44:03.939Z,74.61
2023-04-26T05:47:06.539Z,74.27
2023-04-26T05:50:10.157Z,73.41
2023-04-26T05:53:12.796Z,71.93
2023-04-26T05:56:15.527Z,72.32
2023-04-26T05:59:19.486Z,71.96
2023-04-26T06:02:22.106Z,71.05
2023-04-26T06:05:25.009Z,70.54
2023-04-26T06:08:28.369Z,69.55
2023-04-26T06:11:31.202Z,69.22
2023-04-26T06:14:35.114Z,67.72
2023-04-26T06:17:37.709Z,66.80
2023-04-26T06:20:40.365Z,64.87
2023-04-26T06:23:43.204Z,64.44
2023-04-26T06:26:45.805Z,64.05
2023-04-26T06:29:50.543Z,62.89
2023-04-26T06:32:53.169Z,62.26
2023-04-26T06:35:55.845Z,61.68
2023-04-26T06:38:58.413Z,59.98
2023-04-26T06:42:01.370Z,58.66
2023-04-26T06:45:06.567Z,58.57
2023-04-26T06:48:09.288Z,55.66
2023-04-26T06:51:12.115Z,55.40
2023-04-26T06:54:14.986Z,54.46
2023-04-26T06:57:17.618Z,53.68
2023-04-26T07:00:22.596Z,52.36
2023-04-26T07:03:25.748Z,51.41
2023-04-26T07:06:28.548Z,49.92
2023-04-26T07:09:31.689Z,49.13
2023-04-26T07:12:34.255Z,49.98
2023-04-26T07:15:38.440Z,52.02
2023-04-26T07:18:41.273Z,51.92
2023-04-26T07:21:43.921Z,50.68
2023-04-26T07:24:46.479Z,49.15
2023-04-26T07:27:51.618Z,47.35
2023-04-26T07:30:55.778Z,47.51
2023-04-26T07:33:58.371Z,47.98
2023-04-26T07:37:01.683Z,48.21
2023-04-26T07:40:08.039Z,47.92
2023-04-26T07:43:10.694Z,45.66
2023-04-26T07:46:14.944Z,45.06
2023-04-26T07:49:17.565Z,44.85
2023-04-26T07:52:20.539Z,45.25
2023-04-26T07:55:23.204Z,45.79
2023-04-26T07:58:25.823Z,44.90
2023-04-26T08:01:30.320Z,44.41
2023-04-26T08:04:34.750Z,42.66
2023-04-26T08:07:37.715Z,41.55
2023-04-26T08:10:41.752Z,42.59
2023-04-26T08:13:45.041Z,43.09
2023-04-26T08:16:49.140Z,43.38
2023-04-26T08:19:51.693Z,43.66
2023-04-26T08:22:56.774Z,42.45
2023-04-26T08:25:59.647Z,40.94
2023-04-26T08:29:02.281Z,41.19
2023-04-26T08:32:07.180Z,40.50
2023-04-26T08:35:10.683Z,38.89
2023-04-26T08:38:13.417Z,38.94
2023-04-26T08:41:16.766Z,37.18
2023-04-26T08:44:24.234Z,36.58
2023-04-26T08:47:31.641Z,35.92
2023-04-26T08:50:34.890Z,35.81
2023-04-26T08:53:38.224Z,35.00
2023-04-26T08:56:44.222Z,35.64
2023-04-26T08:59:46.845Z,34.61
2023-04-26T09:02:52.520Z,34.80
2023-04-26T09:05:55.857Z,35.70
2023-04-26T09:08:58.893Z,34.28
2023-04-26T09:12:03.246Z,34.16
2023-04-26T09:15:07.321Z,33.70
2023-04-26T09:18:21.791Z,35.04
2023-04-26T09:21:24.422Z,35.42
2023-04-26T09:24:27.047Z,36.68
2023-04-26T09:27:37.453Z,37.15
2023-04-26T09:30:40.431Z,36.69
2023-04-26T09:34:02.118Z,35.84
2023-04-26T09:37:04.850Z,34.36
2023-04-26T09:40:11.873Z,34.27
2023-04-26T09:43:15.979Z,33.63
2023-04-26T09:46:23.880Z,33.62
2023-04-26T09:49:28.958Z,32.92
2023-04-26T09:52:31.775Z,33.55
2023-04-26T09:55:35.920Z,32.85
2023-04-26T09:58:39.674Z,33.76
2023-04-26T10:01:42.652Z,34.60
2023-04-26T10:04:48.133Z,35.76
2023-04-26T10:07:51.842Z,34.55
2023-04-26T10:10:55.487Z,33.04
2023-04-26T10:13:58.124Z,33.89
2023-04-26T10:17:01.641Z,32.72
2023-04-26T10:20:10.114Z,31.72
2023-04-26T10:23:20.161Z,31.22
2023-04-26T10:26:48.199Z,31.70
2023-04-26T10:30:12.201Z,31.51
2023-04-26T10:33:15.188Z,30.57
2023-04-26T10:36:21.114Z,29.01
2023-04-26T10:39:25.096Z,28.31
2023-04-26T10:42:30.278Z,28.58
2023-04-26T10:45:33.083Z,29.64
2023-04-26T10:48:35.767Z,30.26
2023-04-26T10:51:39.765Z,29.86
2023-04-26T10:54:52.709Z,29.12
2023-04-26T10:57:57.386Z,28.46
2023-04-26T11:01:07.120Z,28.53
2023-04-26T11:04:11.616Z,29.58
2023-04-26T11:07:16.230Z,28.96
2023-04-26T11:10:23.852Z,27.75
2023-04-26T11:13:26.653Z,27.50
2023-04-26T11:16:30.077Z,26.54
2023-04-26T11:19:32.844Z,25.94
2023-04-26T11:22:40.792Z,26.68
2023-04-26T11:25:43.394Z,29.36
2023-04-26T11:28:46.537Z,29.84
2023-04-26T11:31:54.516Z,29.10
2023-04-26T11:35:01.407Z,28.08
2023-04-26T11:38:06.619Z,27.18
2023-04-26T11:41:10.461Z,25.64
2023-04-26T11:44:13.151Z,25.78
2023-04-26T11:47:15.767Z,27.46
2023-04-26T11:50:18.991Z,26.46
2023-04-26T11:53:23.442Z,26.32
2023-04-26T11:56:26.862Z,25.79
2023-04-26T11:59:29.748Z,25.24
2023-04-26T12:02:32.423Z,24.82
2023-04-26T12:05:35.151Z,25.74
2023-04-26T12:08:39.124Z,25.92
2023-04-26T12:11:41.795Z,27.62
2023-04-26T12:14:45.449Z,28.28
2023-04-26T12:17:58.289Z,27.76
2023-04-26T12:21:01.294Z,26.28
2023-04-26T12:24:05.777Z,24.89
2023-04-26T12:27:08.546Z,24.88
2023-04-26T12:30:11.631Z,24.84
2023-04-26T12:33:17.457Z,25.29
2023-04-26T12:36:21.162Z,26.10
2023-04-26T12:39:25.119Z,26.26
2023-04-26T12:42:27.793Z,25.84
2023-04-26T12:45:30.451Z,26.19
2023-04-26T12:48:34.201Z,26.13
2023-04-26T12:51:36.772Z,23.42
2023-04-26T12:54:40.682Z,23.66
2023-04-26T12:57:44.576Z,21.59
2023-04-26T13:00:47.128Z,15.94
2023-04-26T13:03:49.888Z,16.50
2023-04-26T13:06:53.015Z,13.35
2023-04-26T13:09:56.983Z,14.41
2023-04-26T13:12:59.759Z,16.13
2023-04-26T13:16:02.412Z,17.32
2023-04-26T13:19:05.161Z,15.92
2023-04-26T13:22:10.008Z,11.95
2023-04-26T13:25:15.687Z,10.35
2023-04-26T13:28:18.234Z,13.36
2023-04-26T13:31:21.109Z,13.01
2023-04-26T13:34:23.647Z,11.86
2023-04-26T13:37:27.006Z,9.83
2023-04-26T13:40:31.063Z,8.92
2023-04-26T13:43:33.639Z,11.06
2023-04-26T13:46:36.749Z,11.63
2023-04-26T13:49:40.084Z,8.58
2023-04-26T13:52:42.924Z,9.00
2023-04-26T13:55:46.901Z,9.78
2023-04-26T13:58:49.794Z,8.72
2023-04-26T14:01:54.704Z,8.47
2023-04-26T14:04:58.523Z,11.52
2023-04-26T14:08:01.290Z,14.39
2023-04-26T14:11:06.127Z,15.89
2023-04-26T14:14:08.694Z,15.04
2023-04-26T14:17:11.660Z,15.11
2023-04-26T14:20:14.047Z,11.41
2023-04-26T14:23:16.955Z,13.89
2023-04-26T14:26:21.533Z,11.32
2023-04-26T14:29:24.127Z,12.02
2023-04-26T14:32:26.922Z,11.25
2023-04-26T14:35:29.518Z,10.22
2023-04-26T14:38:32.431Z,8.93
2023-04-26T14:41:36.353Z,10.31
2023-04-26T14:44:38.971Z,9.83
2023-04-26T14:47:41.547Z,7.89
2023-04-26T14:50:44.197Z,8.06
2023-04-26T14:53:47.071Z,8.47
2023-04-26T14:56:51.424Z,11.91
2023-04-26T14:59:54.113Z,11.63
2023-04-26T15:02:56.873Z,9.66
2023-04-26T15:05:59.929Z,10.22
2023-04-26T15:09:02.549Z,15.39
2023-04-26T15:12:07.920Z,16.54
2023-04-26T15:15:11.333Z,16.31
2023-04-26T15:18:16.738Z,14.43
2023-04-26T15:21:19.663Z,13.77
2023-04-26T15:24:22.524Z,17.08
2023-04-26T15:27:26.938Z,15.36
2023-04-26T15:30:30.323Z,12.87
2023-04-26T15:33:32.920Z,15.89
2023-04-26T15:36:35.520Z,14.49
2023-04-26T15:39:38.289Z,11.57
2023-04-26T15:42:42.196Z,11.22
2023-04-26T15:45:44.763Z,11.05
2023-04-26T15:48:48.164Z,11.85
2023-04-26T15:51:50.729Z,11.70
2023-04-26T15:54:53.383Z,14.73
2023-04-26T15:57:57.554Z,20.23
2023-04-26T16:01:00.332Z,16.74
2023-04-26T16:04:03.348Z,17.46
2023-04-26T16:07:05.975Z,20.93
2023-04-26T16:10:10.117Z,25.41
2023-04-26T16:13:16.373Z,26.41
2023-04-26T16:16:19.302Z,23.33
2023-04-26T16:19:22.932Z,25.64
2023-04-26T16:22:25.730Z,26.45
2023-04-26T16:28:32.069Z,28.30
2023-04-26T16:31:34.896Z,28.73
2023-04-26T16:34:37.534Z,29.49
2023-04-26T16:37:41.742Z,28.59
2023-04-26T16:40:44.345Z,25.63
2023-04-26T16:43:48.509Z,23.27
2023-04-26T16:46:51.182Z,21.64
2023-04-26T16:49:53.926Z,23.62
2023-04-26T16:52:56.559Z,25.10
2023-04-26T16:55:59.365Z,26.00
2023-04-26T16:59:03.249Z,25.70
2023-04-26T17:02:06.061Z,25.96
2023-04-26T17:05:10.026Z,27.65
2023-04-26T17:08:12.718Z,29.13
2023-04-26T17:11:16.145Z,30.46
2023-04-26T17:14:19.901Z,30.56
2023-04-26T17:17:22.529Z,30.98
2023-04-26T17:20:25.161Z,32.02
2023-04-26T17:23:27.867Z,32.17
2023-04-26T17:26:30.945Z,32.20
2023-04-26T17:29:35.116Z,31.93
2023-04-26T17:32:37.854Z,32.27
2023-04-26T17:35:40.441Z,32.86
2023-04-26T17:38:43.344Z,33.40
2023-04-26T17:41:46.008Z,34.14
2023-04-26T17:44:49.973Z,34.78
2023-04-26T17:47:52.554Z,34.60
2023-04-26T17:50:55.148Z,34.60
2023-04-26T17:53:57.864Z,35.10
2023-04-26T17:57:00.465Z,35.23
2023-04-26T18:00:05.474Z,35.70
2023-04-26T18:03:08.432Z,36.14
2023-04-26T18:06:11.481Z,36.62
2023-04-26T18:09:14.083Z,37.67
2023-04-26T18:12:16.743Z,38.03
2023-04-26T18:15:20.864Z,39.47
2023-04-26T18:18:25.187Z,39.50
2023-04-26T18:21:29.748Z,38.73
2023-04-26T18:24:32.294Z,38.99
2023-04-26T18:27:34.990Z,38.80
2023-04-26T18:30:38.948Z,39.29
2023-04-26T18:33:41.493Z,41.32
2023-04-26T18:36:44.222Z,44.02
2023-04-26T18:39:46.830Z,44.61
2023-04-26T18:42:49.523Z,45.16
2023-04-26T18:45:53.501Z,45.20
2023-04-26T18:48:56.280Z,45.30
2023-04-26T18:51:58.810Z,45.76
2023-04-26T18:55:01.348Z,46.01
2023-04-26T18:58:03.980Z,46.06
2023-04-26T19:01:08.071Z,47.01
2023-04-26T19:04:10.929Z,47.58
2023-04-26T19:07:13.629Z,47.90
2023-04-26T19:10:16.565Z,47.17
2023-04-26T19:13:19.630Z,47.43
2023-04-26T19:16:23.750Z,47.76
2023-04-26T19:19:26.427Z,47.69
2023-04-26T19:22:29.075Z,48.55
2023-04-26T19:25:31.646Z,48.37
2023-04-26T19:28:34.478Z,48.29
2023-04-26T19:31:38.860Z,48.64
2023-04-26T19:34:41.502Z,48.96
2023-04-26T19:37:44.080Z,48.17
2023-04-26T19:40:46.808Z,48.26
2023-04-26T19:43:49.494Z,48.62
2023-04-26T19:46:53.761Z,49.13
2023-04-26T19:49:57.837Z,48.79
2023-04-26T19:53:00.478Z,49.26
2023-04-26T19:56:03.100Z,49.30
2023-04-26T19:59:06.033Z,49.65
2023-04-26T20:02:10.153Z,49.37
2023-04-26T20:05:13.230Z,49.45
2023-04-26T20:08:15.817Z,49.35
2023-04-26T20:11:19.231Z,49.20
2023-04-26T20:14:21.756Z,49.90
2023-04-26T20:17:25.800Z,50.04
2023-04-26T20:20:28.599Z,49.62
2023-04-26T20:23:31.401Z,50.06
2023-04-26T20:26:33.936Z,49.72
2023-04-26T20:29:37.177Z,50.00
2023-04-26T20:32:41.109Z,50.15
2023-04-26T20:35:43.704Z,49.81
2023-04-26T20:38:46.322Z,50.46
2023-04-26T20:41:48.881Z,50.39
2023-04-26T20:44:51.470Z,50.31
2023-04-26T20:47:55.558Z,50.36
2023-04-26T20:50:58.724Z,50.64
2023-04-26T20:54:01.369Z,50.91
2023-04-26T20:57:04.460Z,51.00
2023-04-26T21:00:10.348Z,50.81
2023-04-26T21:03:14.613Z,50.76
2023-04-26T21:06:17.264Z,51.02
2023-04-26T21:09:19.840Z,50.75
2023-04-26T21:12:22.457Z,50.77
2023-04-26T21:15:25.044Z,50.97
2023-04-26T21:18:28.946Z,51.31
2023-04-26T21:21:32.612Z,51.72
2023-04-26T21:24:35.298Z,51.91
2023-04-26T21:27:37.877Z,52.34
2023-04-26T21:30:40.509Z,52.55
2023-04-26T21:33:44.380Z,52.01
2023-04-26T21:36:47.319Z,52.39
2023-04-26T21:39:49.933Z,52.49
2023-04-26T21:43:03.911Z,52.23
2023-04-26T21:46:07.905Z,52.28
2023-04-26T21:49:12.211Z,52.75
2023-04-26T21:52:14.875Z,52.40
2023-04-26T21:55:17.482Z,52.28
2023-04-26T21:58:20.562Z,51.99
2023-04-26T22:01:23.378Z,51.83
2023-04-26T22:04:27.290Z,52.19
2023-04-26T22:07:30.104Z,52.04
2023-04-26T22:10:32.899Z,52.24
2023-04-26T22:13:35.777Z,52.28
2023-04-26T22:16:38.278Z,52.36
2023-04-26T22:19:42.188Z,52.68
2023-04-26T22:22:44.743Z,52.95
2023-04-26T22:25:47.374Z,53.13
2023-04-26T22:28:49.893Z,52.65
2023-04-26T22:31:52.487Z,52.65
2023-04-26T22:34:56.402Z,52.73
2023-04-26T22:37:59.020Z,52.86
2023-04-26T22:41:01.531Z,52.75
2023-04-26T22:44:04.077Z,53.09
2023-04-26T22:47:06.657Z,52.90
2023-04-26T22:50:11.797Z,52.69
2023-04-26T22:53:14.384Z,52.19
2023-04-26T22:56:17.033Z,52.48
2023-04-26T22:59:19.616Z,53.26
2023-04-26T23:02:22.343Z,53.63
2023-04-26T23:05:26.338Z,53.17
2023-04-26T23:08:28.840Z,53.85
2023-04-26T23:11:31.802Z,53.38
2023-04-26T23:14:35.105Z,53.61
2023-04-26T23:17:39.009Z,54.65
2023-04-26T23:20:42.888Z,53.79
2023-04-26T23:23:45.395Z,53.86
2023-04-26T23:26:47.932Z,53.54
2023-04-26T23:29:50.967Z,53.60
2023-04-26T23:32:53.559Z,53.84
2023-04-26T23:35:57.702Z,53.51
2023-04-26T23:39:00.212Z,54.14
2023-04-26T23:42:03.727Z,54.03
2023-04-26T23:45:07.759Z,54.35
2023-04-26T23:48:10.371Z,53.92
2023-04-26T23:51:14.349Z,54.05
2023-04-26T23:54:17.004Z,54.58
2023-04-26T23:57:19.582Z,54.58
